createdAt,value
2022-08-22T00:00:17.809Z,70.00
2022-08-22T00:02:49.499Z,35.00
2022-08-22T00:02:57.487Z,42.10
2022-08-22T00:03:06.551Z,46.80
2022-08-22T00:03:25.571Z,72.50
2022-08-22T00:06:10.207Z,76.00
2022-08-22T00:09:09.044Z,78.20
2022-08-22T00:11:54.411Z,79.80
2022-08-22T00:14:50.728Z,80.80
2022-08-22T00:17:40.767Z,84.70
2022-08-22T00:20:10.686Z,88.70
2022-08-22T00:22:47.662Z,88.50
2022-08-22T00:25:25.922Z,90.80
2022-08-22T00:28:11.942Z,90.80
2022-08-22T00:31:13.354Z,92.20
2022-08-22T00:33:48.427Z,93.30
2022-08-22T00:36:47.673Z,93.40
2022-08-22T00:39:42.533Z,93.70
2022-08-22T00:42:35.600Z,94.20
2022-08-22T00:45:08.528Z,94.90
2022-08-22T00:47:38.344Z,95.20
2022-08-22T00:50:34.459Z,95.50
2022-08-22T00:53:22.524Z,94.60
2022-08-22T00:56:32.529Z,95.70
2022-08-22T00:59:23.033Z,96.10
2022-08-22T01:02:32.022Z,94.80
2022-08-22T01:04:58.710Z,95.40
2022-08-22T01:07:38.356Z,94.30
2022-08-22T01:11:03.413Z,94.40
2022-08-22T01:14:08.165Z,95.00
2022-08-22T01:16:35.074Z,95.90
2022-08-22T01:19:38.611Z,97.00
2022-08-22T01:22:22.431Z,97.90
2022-08-22T01:25:10.781Z,98.00
2022-08-22T01:27:51.153Z,97.90
2022-08-22T01:30:50.137Z,98.10
2022-08-22T01:33:44.292Z,99.20
2022-08-22T01:36:40.777Z,98.60
2022-08-22T01:39:31.813Z,99.30
2022-08-22T01:42:35.122Z,99.90
2022-08-22T01:45:33.945Z,99.90
2022-08-22T01:48:36.984Z,99.90
2022-08-22T01:51:13.068Z,99.90
2022-08-22T01:54:08.156Z,99.50
2022-08-22T01:56:44.157Z,99.90
2022-08-22T01:59:52.846Z,99.10
2022-08-22T02:02:26.073Z,99.70
2022-08-22T02:05:26.338Z,99.70
2022-08-22T02:08:02.926Z,99.90
2022-08-22T02:10:57.877Z,99.90
2022-08-22T02:13:33.534Z,99.90
2022-08-22T02:16:18.632Z,99.90
2022-08-22T02:19:07.497Z,99.90
2022-08-22T02:21:57.026Z,99.90
2022-08-22T02:24:32.697Z,99.90
2022-08-22T02:27:43.562Z,99.90
2022-08-22T02:30:18.772Z,99.90
2022-08-22T02:33:00.562Z,99.90
2022-08-22T02:35:33.656Z,99.90
2022-08-22T02:38:07.946Z,99.90
2022-08-22T02:40:43.279Z,99.90
2022-08-22T02:43:18.637Z,99.90
2022-08-22T02:45:57.315Z,99.90
2022-08-22T02:49:14.877Z,99.90
2022-08-22T02:52:00.555Z,99.90
2022-08-22T02:54:41.778Z,99.90
2022-08-22T02:57:19.021Z,99.90
2022-08-22T03:00:31.973Z,99.90
2022-08-22T03:03:14.384Z,99.90
2022-08-22T03:05:41.573Z,99.90
2022-08-22T03:08:25.555Z,99.90
2022-08-22T03:11:03.205Z,99.90
2022-08-22T03:13:52.466Z,99.90
2022-08-22T03:16:26.345Z,99.90
2022-08-22T03:19:21.439Z,99.90
2022-08-22T03:22:00.693Z,99.90
2022-08-22T03:24:46.737Z,99.90
2022-08-22T03:27:32.666Z,99.90
2022-08-22T03:30:08.189Z,99.90
2022-08-22T03:32:52.236Z,99.90
2022-08-22T03:35:39.216Z,99.90
2022-08-22T03:38:34.255Z,99.90
2022-08-22T03:41:09.956Z,99.90
2022-08-22T03:43:51.759Z,99.90
2022-08-22T03:46:46.173Z,99.90
2022-08-22T03:49:31.445Z,99.90
2022-08-22T03:52:22.942Z,99.90
2022-08-22T03:55:06.102Z,99.90
2022-08-22T03:58:27.457Z,99.90
2022-08-22T04:01:06.595Z,99.90
2022-08-22T04:04:12.309Z,99.90
2022-08-22T04:06:41.852Z,99.90
2022-08-22T04:09:18.247Z,99.90
2022-08-22T04:12:10.530Z,99.90
2022-08-22T04:15:10.068Z,99.90
2022-08-22T04:17:55.550Z,99.90
2022-08-22T04:21:03.455Z,99.90
2022-08-22T04:24:02.066Z,99.90
2022-08-22T04:26:42.911Z,99.90
2022-08-22T04:29:19.632Z,99.90
2022-08-22T04:31:59.739Z,99.90
2022-08-22T04:34:52.167Z,99.90
2022-08-22T04:37:36.071Z,99.90
2022-08-22T04:40:36.932Z,99.90
2022-08-22T04:43:08.459Z,99.90
2022-08-22T04:46:12.859Z,99.90
2022-08-22T04:48:55.463Z,99.90
2022-08-22T04:51:25.371Z,99.90
2022-08-22T04:54:28.066Z,99.90
2022-08-22T04:57:15.974Z,99.90
2022-08-22T04:59:43.999Z,99.90
2022-08-22T05:02:19.755Z,99.90
2022-08-22T05:04:52.052Z,99.90
2022-08-22T05:07:23.672Z,99.90
2022-08-22T05:09:58.052Z,99.90
2022-08-22T05:12:35.066Z,99.90
2022-08-22T05:15:15.205Z,99.90
2022-08-22T05:17:48.818Z,99.90
2022-08-22T05:20:21.815Z,99.90
2022-08-22T05:22:55.579Z,99.90
2022-08-22T05:25:36.371Z,99.90
2022-08-22T05:28:24.978Z,99.90
2022-08-22T05:30:53.611Z,99.90
2022-08-22T05:33:29.776Z,99.90
2022-08-22T05:36:11.578Z,99.90
2022-08-22T05:38:47.499Z,99.90
2022-08-22T05:41:27.150Z,99.90
2022-08-22T05:43:54.947Z,99.90
2022-08-22T05:46:51.562Z,99.90
2022-08-22T05:49:23.538Z,99.90
2022-08-22T05:52:32.199Z,99.90
2022-08-22T05:55:22.857Z,99.90
2022-08-22T05:58:18.388Z,99.90
2022-08-22T06:00:52.079Z,99.90
2022-08-22T06:03:29.717Z,99.90
2022-08-22T06:05:59.611Z,99.90
2022-08-22T06:08:38.154Z,99.90
2022-08-22T06:11:17.999Z,99.90
2022-08-22T06:13:56.007Z,99.90
2022-08-22T06:16:47.646Z,99.90
2022-08-22T06:19:19.449Z,99.90
2022-08-22T06:21:50.610Z,99.90
2022-08-22T06:24:27.023Z,99.90
2022-08-22T06:26:58.203Z,99.90
2022-08-22T06:29:36.458Z,99.40
2022-08-22T06:32:44.466Z,99.30
2022-08-22T06:35:26.322Z,99.50
2022-08-22T06:37:58.941Z,99.60
2022-08-22T06:40:28.169Z,99.90
2022-08-22T06:42:57.192Z,98.70
2022-08-22T06:45:29.586Z,98.80
2022-08-22T06:48:20.953Z,97.40
2022-08-22T06:50:56.188Z,97.40
2022-08-22T06:53:38.208Z,96.70
2022-08-22T06:56:13.555Z,96.00
2022-08-22T06:58:40.395Z,95.40
2022-08-22T07:01:12.746Z,96.10
2022-08-22T07:03:49.845Z,96.50
2022-08-22T07:06:28.130Z,98.10
2022-08-22T07:08:55.935Z,96.20
2022-08-22T07:11:29.751Z,97.20
2022-08-22T07:14:00.663Z,96.30
2022-08-22T07:16:39.783Z,97.00
2022-08-22T07:19:07.382Z,95.40
2022-08-22T07:21:47.687Z,95.20
2022-08-22T07:24:22.612Z,95.10
2022-08-22T07:26:59.577Z,92.80
2022-08-22T07:29:38.157Z,93.00
2022-08-22T07:32:25.302Z,92.00
2022-08-22T07:35:08.995Z,85.70
2022-08-22T07:38:08.079Z,82.00
2022-08-22T07:40:48.451Z,74.70
2022-08-22T07:43:27.089Z,71.80
2022-08-22T07:45:59.117Z,67.70
2022-08-22T07:48:29.361Z,65.70
2022-08-22T07:51:14.355Z,63.60
2022-08-22T07:53:47.448Z,60.70
2022-08-22T07:56:27.052Z,59.60
2022-08-22T07:58:58.877Z,61.30
2022-08-22T08:01:26.946Z,57.80
2022-08-22T08:03:59.846Z,58.30
2022-08-22T08:06:28.483Z,57.70
2022-08-22T08:08:56.660Z,54.10
2022-08-22T08:11:27.378Z,52.60
2022-08-22T08:13:59.120Z,52.30
2022-08-22T08:16:32.328Z,49.80
2022-08-22T08:19:01.631Z,47.00
2022-08-22T08:21:37.715Z,45.20
2022-08-22T08:24:07.619Z,44.50
2022-08-22T08:26:39.898Z,42.90
2022-08-22T08:29:07.322Z,41.90
2022-08-22T08:31:44.927Z,40.20
2022-08-22T08:34:18.654Z,40.60
2022-08-22T08:37:05.334Z,40.20
2022-08-22T08:39:50.554Z,40.90
2022-08-22T08:43:05.675Z,40.50
2022-08-22T08:46:14.196Z,39.00
2022-08-22T08:48:50.116Z,37.30
2022-08-22T08:51:46.280Z,38.00
2022-08-22T08:54:31.615Z,36.80
2022-08-22T08:57:11.129Z,34.90
2022-08-22T08:59:49.314Z,33.70
2022-08-22T09:02:38.542Z,33.40
2022-08-22T09:05:30.950Z,33.80
2022-08-22T09:08:34.140Z,33.80
2022-08-22T09:11:32.073Z,33.40
2022-08-22T09:14:18.484Z,32.70
2022-08-22T09:17:09.224Z,31.20
2022-08-22T09:19:56.305Z,31.60
2022-08-22T09:22:50.637Z,31.20
2022-08-22T09:25:20.521Z,29.50
2022-08-22T09:28:16.351Z,29.10
2022-08-22T09:31:21.929Z,28.40
2022-08-22T09:34:10.722Z,28.80
2022-08-22T09:37:16.235Z,27.70
2022-08-22T09:40:00.242Z,27.70
2022-08-22T09:42:49.749Z,27.80
2022-08-22T09:45:25.342Z,27.70
2022-08-22T09:48:06.971Z,27.70
2022-08-22T09:51:33.355Z,27.50
2022-08-22T09:54:15.649Z,27.40
2022-08-22T09:56:54.611Z,27.40
2022-08-22T09:59:50.224Z,27.30
2022-08-22T10:02:37.343Z,27.60
2022-08-22T10:05:10.471Z,27.30
2022-08-22T10:08:00.476Z,28.00
2022-08-22T10:10:38.978Z,27.80
2022-08-22T10:13:21.399Z,28.20
2022-08-22T10:16:15.137Z,27.80
2022-08-22T10:19:24.658Z,28.30
2022-08-22T10:22:32.970Z,27.30
2022-08-22T10:25:28.746Z,27.10
2022-08-22T10:28:21.204Z,26.50
2022-08-22T10:31:18.152Z,26.30
2022-08-22T10:34:03.369Z,26.20
2022-08-22T10:37:08.615Z,25.50
2022-08-22T10:39:44.398Z,25.00
2022-08-22T10:42:23.331Z,24.90
2022-08-22T10:45:12.903Z,25.10
2022-08-22T10:47:54.244Z,25.00
2022-08-22T10:50:42.974Z,24.60
2022-08-22T10:53:34.748Z,24.40
2022-08-22T10:56:27.786Z,24.30
2022-08-22T10:59:08.383Z,24.50
2022-08-22T11:01:43.979Z,24.30
2022-08-22T11:04:28.295Z,24.70
2022-08-22T11:07:29.007Z,24.20
2022-08-22T11:10:21.763Z,23.80
2022-08-22T11:13:12.907Z,24.00
2022-08-22T11:16:00.796Z,24.00
2022-08-22T11:19:14.554Z,23.40
2022-08-22T11:21:45.969Z,23.30
2022-08-22T11:24:35.571Z,22.20
2022-08-22T11:27:39.811Z,21.80
2022-08-22T11:30:18.818Z,21.30
2022-08-22T11:33:04.782Z,20.90
2022-08-22T11:35:43.678Z,21.30
2022-08-22T11:38:38.715Z,21.20
2022-08-22T11:41:36.657Z,20.70
2022-08-22T11:44:13.371Z,20.30
2022-08-22T11:46:45.339Z,20.10
2022-08-22T11:49:26.922Z,20.60
2022-08-22T11:52:38.362Z,20.60
2022-08-22T11:55:32.646Z,21.10
2022-08-22T11:58:20.965Z,21.50
2022-08-22T12:01:34.520Z,21.60
2022-08-22T12:04:37.455Z,20.50
2022-08-22T12:07:16.387Z,20.60
2022-08-22T12:10:20.718Z,20.00
2022-08-22T12:13:35.028Z,19.90
2022-08-22T12:16:23.957Z,20.20
2022-08-22T12:19:23.966Z,19.40
2022-08-22T12:21:59.854Z,19.50
2022-08-22T12:25:02.700Z,19.00
2022-08-22T12:27:52.575Z,18.50
2022-08-22T12:30:46.662Z,17.00
2022-08-22T12:34:02.205Z,17.80
2022-08-22T12:36:48.562Z,17.30
2022-08-22T12:39:56.626Z,17.50
2022-08-22T12:42:43.434Z,17.80
2022-08-22T12:45:36.359Z,17.50
2022-08-22T12:48:40.369Z,17.90
2022-08-22T12:51:29.477Z,17.60
2022-08-22T12:54:14.593Z,17.90
2022-08-22T12:56:53.009Z,17.80
2022-08-22T12:59:36.597Z,17.40
2022-08-22T13:02:23.603Z,18.20
2022-08-22T13:04:58.323Z,18.00
2022-08-22T13:07:32.099Z,18.00
2022-08-22T13:10:20.421Z,17.20
2022-08-22T13:12:53.960Z,17.30
2022-08-22T13:15:34.233Z,17.10
2022-08-22T13:18:29.679Z,16.90
2022-08-22T13:21:00.833Z,16.90
2022-08-22T13:23:30.591Z,16.10
2022-08-22T13:26:03.102Z,16.50
2022-08-22T13:28:41.796Z,16.00
2022-08-22T13:31:09.695Z,16.10
2022-08-22T13:33:46.988Z,16.10
2022-08-22T13:36:19.097Z,16.40
2022-08-22T13:39:13.187Z,16.10
2022-08-22T13:41:47.834Z,16.00
2022-08-22T13:44:27.959Z,15.80
2022-08-22T13:47:14.546Z,15.70
2022-08-22T13:49:48.358Z,16.10
2022-08-22T13:52:32.653Z,13.10
2022-08-22T13:55:23.557Z,13.90
2022-08-22T13:58:01.443Z,12.30
2022-08-22T14:00:57.282Z,11.70
2022-08-22T14:03:52.783Z,12.10
2022-08-22T14:06:41.277Z,12.70
2022-08-22T14:09:32.983Z,13.10
2022-08-22T14:12:13.746Z,13.40
2022-08-22T14:14:45.875Z,14.70
2022-08-22T14:17:20.806Z,14.30
2022-08-22T14:20:01.895Z,15.00
2022-08-22T14:22:35.308Z,15.00
2022-08-22T14:25:08.750Z,15.10
2022-08-22T14:27:57.888Z,14.90
2022-08-22T14:30:32.220Z,15.00
2022-08-22T14:33:12.767Z,15.40
2022-08-22T14:35:54.486Z,15.50
2022-08-22T14:38:33.138Z,14.90
2022-08-22T14:41:15.353Z,14.50
2022-08-22T14:44:08.864Z,14.50
2022-08-22T14:46:45.049Z,14.60
2022-08-22T14:49:48.036Z,14.40
2022-08-22T14:52:30.684Z,14.60
2022-08-22T14:55:11.298Z,14.50
2022-08-22T14:57:48.615Z,14.10
2022-08-22T15:00:28.621Z,14.50
2022-08-22T15:03:14.890Z,14.30
2022-08-22T15:05:45.620Z,14.60
2022-08-22T15:08:21.758Z,15.30
2022-08-22T15:11:10.546Z,15.20
2022-08-22T15:13:48.675Z,14.80
2022-08-22T15:16:20.894Z,15.10
2022-08-22T15:18:51.574Z,14.70
2022-08-22T15:21:29.818Z,14.40
2022-08-22T15:24:06.930Z,14.50
2022-08-22T15:26:39.497Z,14.60
2022-08-22T15:29:22.205Z,14.90
2022-08-22T15:31:54.121Z,14.60
2022-08-22T15:34:41.812Z,14.70
2022-08-22T15:37:52.198Z,14.50
2022-08-22T15:40:43.762Z,14.80
2022-08-22T15:43:36.524Z,14.90
2022-08-22T15:46:23.308Z,14.60
2022-08-22T15:48:59.769Z,14.70
2022-08-22T15:51:40.680Z,14.60
2022-08-22T15:54:25.637Z,14.80
2022-08-22T15:56:56.399Z,15.00
2022-08-22T15:59:53.339Z,14.70
2022-08-22T16:02:35.656Z,14.90
2022-08-22T16:05:11.654Z,15.40
2022-08-22T16:07:40.636Z,15.40
2022-08-22T16:10:10.171Z,15.30
2022-08-22T16:12:41.945Z,16.00
2022-08-22T16:15:46.981Z,15.10
2022-08-22T16:18:37.017Z,15.20
2022-08-22T16:21:26.542Z,15.40
2022-08-22T16:23:56.829Z,15.40
2022-08-22T16:26:29.397Z,15.40
2022-08-22T16:29:17.307Z,15.50
2022-08-22T16:31:44.794Z,15.50
2022-08-22T16:34:17.701Z,15.50
2022-08-22T16:36:44.798Z,15.70
2022-08-22T16:39:21.161Z,15.60
2022-08-22T16:41:49.176Z,15.90
2022-08-22T16:44:41.624Z,16.00
2022-08-22T16:47:36.778Z,16.00
2022-08-22T16:50:09.888Z,16.30
2022-08-22T16:52:52.143Z,16.10
2022-08-22T16:55:30.927Z,16.10
2022-08-22T16:58:32.369Z,16.40
2022-08-22T17:01:41.100Z,16.50
2022-08-22T17:04:52.931Z,16.40
2022-08-22T17:07:38.457Z,16.50
2022-08-22T17:10:24.144Z,16.80
2022-08-22T17:13:16.466Z,16.70
2022-08-22T17:16:12.481Z,16.60
2022-08-22T17:18:52.357Z,16.80
2022-08-22T17:21:28.487Z,16.80
2022-08-22T17:24:32.226Z,16.80
2022-08-22T17:27:03.755Z,16.70
2022-08-22T17:29:36.642Z,17.10
2022-08-22T17:32:07.381Z,16.80
2022-08-22T17:34:56.821Z,16.80
2022-08-22T17:37:51.039Z,16.80
2022-08-22T17:40:35.008Z,17.10
2022-08-22T17:43:48.524Z,17.00
2022-08-22T17:46:44.950Z,17.20
2022-08-22T17:49:12.054Z,17.40
2022-08-22T17:52:18.614Z,17.60
2022-08-22T17:55:05.134Z,17.60
2022-08-22T17:57:44.379Z,17.70
2022-08-22T18:00:17.435Z,18.10
2022-08-22T18:03:15.338Z,18.40
2022-08-22T18:06:02.558Z,18.60
2022-08-22T18:09:13.346Z,18.80
2022-08-22T18:12:04.649Z,18.90
2022-08-22T18:14:46.961Z,19.00
2022-08-22T18:17:25.916Z,19.20
2022-08-22T18:20:11.213Z,19.20
2022-08-22T18:22:52.091Z,19.40
2022-08-22T18:25:19.252Z,19.80
2022-08-22T18:27:55.808Z,20.00
2022-08-22T18:30:27.714Z,20.20
2022-08-22T18:33:28.658Z,20.30
2022-08-22T18:36:09.628Z,20.40
2022-08-22T18:38:59.575Z,20.60
2022-08-22T18:41:38.226Z,20.70
2022-08-22T18:44:25.981Z,21.00
2022-08-22T18:47:00.245Z,21.10
2022-08-22T18:49:27.094Z,21.40
2022-08-22T18:52:06.855Z,21.40
2022-08-22T18:54:54.607Z,21.60
2022-08-22T18:57:48.886Z,21.80
2022-08-22T19:00:19.044Z,21.90
2022-08-22T19:03:18.732Z,22.10
2022-08-22T19:06:00.534Z,22.20
2022-08-22T19:08:50.363Z,22.20
2022-08-22T19:11:53.399Z,22.40
2022-08-22T19:14:46.220Z,22.60
2022-08-22T19:17:34.597Z,22.70
2022-08-22T19:20:26.326Z,23.00
2022-08-22T19:23:32.593Z,23.10
2022-08-22T19:26:24.277Z,23.40
2022-08-22T19:28:53.958Z,23.70
2022-08-22T19:31:23.598Z,23.70
2022-08-22T19:34:15.481Z,23.90
2022-08-22T19:36:42.941Z,24.10
2022-08-22T19:39:31.995Z,24.20
2022-08-22T19:42:00.048Z,24.40
2022-08-22T19:44:27.015Z,24.60
2022-08-22T19:47:35.146Z,24.70
2022-08-22T19:50:15.135Z,25.00
2022-08-22T19:52:53.604Z,25.20
2022-08-22T19:55:38.827Z,25.50
2022-08-22T19:58:05.550Z,25.60
2022-08-22T20:01:21.326Z,25.80
2022-08-22T20:04:09.670Z,26.30
2022-08-22T20:07:03.211Z,26.40
2022-08-22T20:09:50.262Z,26.60
2022-08-22T20:12:29.331Z,26.80
2022-08-22T20:14:57.027Z,27.00
2022-08-22T20:17:26.753Z,27.20
2022-08-22T20:20:17.514Z,27.40
2022-08-22T20:22:53.658Z,27.60
2022-08-22T20:25:43.516Z,27.80
2022-08-22T20:28:10.854Z,27.90
2022-08-22T20:30:41.447Z,28.30
2022-08-22T20:33:27.945Z,28.30
2022-08-22T20:35:59.443Z,28.60
2022-08-22T20:38:33.157Z,28.50
2022-08-22T20:41:22.823Z,28.60
2022-08-22T20:44:18.526Z,28.60
2022-08-22T20:47:04.441Z,28.70
2022-08-22T20:49:35.906Z,29.00
2022-08-22T20:52:07.283Z,29.30
2022-08-22T20:54:38.096Z,29.30
2022-08-22T20:57:17.811Z,29.40
2022-08-22T20:59:52.254Z,30.00
2022-08-22T21:02:30.146Z,29.90
2022-08-22T21:05:03.823Z,30.40
2022-08-22T21:07:37.381Z,29.90
2022-08-22T21:10:25.759Z,30.60
2022-08-22T21:13:15.894Z,30.90
2022-08-22T21:15:50.917Z,31.10
2022-08-22T21:18:28.022Z,31.60
2022-08-22T21:21:03.666Z,31.60
2022-08-22T21:23:34.787Z,31.80
2022-08-22T21:26:11.315Z,32.10
2022-08-22T21:28:53.211Z,32.30
2022-08-22T21:31:23.395Z,32.60
2022-08-22T21:33:52.466Z,33.20
2022-08-22T21:36:22.249Z,33.00
2022-08-22T21:39:06.838Z,33.00
2022-08-22T21:41:43.102Z,33.20
2022-08-22T21:44:32.451Z,33.50
2022-08-22T21:47:30.187Z,33.70
2022-08-22T21:50:23.175Z,34.10
2022-08-22T21:52:56.047Z,33.90
2022-08-22T21:55:30.445Z,34.50
2022-08-22T21:58:35.097Z,34.80
2022-08-22T22:01:27.165Z,35.00
2022-08-22T22:03:54.740Z,35.20
2022-08-22T22:06:21.490Z,35.70
2022-08-22T22:08:48.871Z,35.70
2022-08-22T22:11:16.327Z,36.10
2022-08-22T22:13:43.772Z,36.40
2022-08-22T22:16:12.143Z,36.70
2022-08-22T22:18:40.624Z,37.10
2022-08-22T22:21:08.355Z,37.40
2022-08-22T22:23:35.251Z,37.80
2022-08-22T22:26:04.768Z,38.50
2022-08-22T22:28:33.472Z,38.50
2022-08-22T22:31:00.432Z,38.80
2022-08-22T22:33:30.859Z,39.00
2022-08-22T22:36:00.994Z,39.40
2022-08-22T22:38:27.773Z,40.00
2022-08-22T22:40:54.605Z,39.90
2022-08-22T22:43:21.374Z,40.10
2022-08-22T22:45:48.089Z,40.40
2022-08-22T22:48:18.209Z,41.20
2022-08-22T22:50:51.522Z,41.90
2022-08-22T22:53:19.528Z,42.50
2022-08-22T22:55:59.725Z,43.10
2022-08-22T22:58:28.300Z,43.40
2022-08-22T23:00:55.917Z,43.10
2022-08-22T23:03:22.923Z,43.50
2022-08-22T23:05:49.648Z,43.90
2022-08-22T23:08:16.511Z,44.70
2022-08-22T23:10:43.205Z,45.40
2022-08-22T23:13:09.929Z,45.60
2022-08-22T23:15:37.222Z,46.00
2022-08-22T23:18:04.016Z,46.90
2022-08-22T23:20:31.093Z,48.00
2022-08-22T23:22:59.515Z,48.00
2022-08-22T23:25:26.729Z,49.90
2022-08-22T23:27:53.730Z,50.40
2022-08-22T23:30:21.473Z,51.00
2022-08-22T23:32:48.254Z,52.60
2022-08-22T23:35:14.999Z,52.70
2022-08-22T23:37:41.752Z,53.30
2022-08-22T23:40:09.598Z,54.10
2022-08-22T23:42:36.505Z,56.30
2022-08-22T23:45:03.690Z,58.30
2022-08-22T23:47:30.491Z,59.60
2022-08-22T23:49:57.354Z,62.20
2022-08-22T23:52:24.852Z,61.50
2022-08-22T23:54:55.489Z,63.70
2022-08-22T23:57:26.539Z,67.50
2022-08-22T23:59:57.874Z,66.50
